Time;durP1;ratioP1;P1;durP2;ratioP2;P2;SDS_P1;SDS_P2;PMS_P1;PMS_P2;Temp;Humidity;BMP_temperature;BMP_pressure;BME280_temperature;BME280_humidity;BME280_pressure;Samples;Min_cycle;Max_cycle;Signal;HPM_P1;HPM_P2
2023/09/17 00:00:09;;;;;;;6.00;5.23;;;16.40;99.90;;;;;;4971861;28;20662;-60
2023/09/17 00:02:35;;;;;;;8.97;6.10;;;16.40;99.90;;;;;;4966507;28;20260;-60
2023/09/17 00:05:01;;;;;;;7.20;6.10;;;16.40;99.90;;;;;;4969728;28;20437;-60
2023/09/17 00:07:27;;;;;;;17.27;5.57;;;16.30;99.90;;;;;;4969024;28;20833;-60
2023/09/17 00:09:52;;;;;;;6.80;5.20;;;16.30;99.90;;;;;;4967552;28;20181;-60
2023/09/17 00:12:19;;;;;;;6.63;5.20;;;16.30;99.90;;;;;;4971603;28;20284;-60
2023/09/17 00:14:45;;;;;;;5.60;4.93;;;16.30;99.90;;;;;;4968730;28;21434;-60
2023/09/17 00:17:11;;;;;;;6.00;5.23;;;16.30;99.90;;;;;;4966775;28;20574;-60
2023/09/17 00:19:37;;;;;;;7.40;5.73;;;16.30;99.90;;;;;;4963499;28;20440;-60
2023/09/17 00:22:04;;;;;;;6.70;5.50;;;16.30;99.90;;;;;;4969484;28;20560;-60
2023/09/17 00:24:29;;;;;;;6.93;5.90;;;16.30;99.90;;;;;;4961915;28;20181;-60
2023/09/17 00:26:55;;;;;;;7.37;6.10;;;16.30;99.90;;;;;;4969102;28;20847;-60
2023/09/17 00:29:23;;;;;;;7.73;5.50;;;16.20;99.90;;;;;;4967021;28;20181;-60
2023/09/17 00:31:49;;;;;;;10.33;6.13;;;16.20;99.90;;;;;;4968696;28;20236;-60
2023/09/17 00:34:14;;;;;;;11.17;5.50;;;16.20;99.90;;;;;;4971839;28;20931;-60
2023/09/17 00:36:40;;;;;;;6.93;6.00;;;16.20;99.90;;;;;;4968468;28;20225;-60
2023/09/17 00:39:06;;;;;;;7.90;6.20;;;16.10;99.90;;;;;;4967535;28;20197;-60
2023/09/17 00:41:32;;;;;;;6.17;5.57;;;16.10;99.90;;;;;;4969257;28;20206;-60
2023/09/17 00:43:58;;;;;;;8.03;5.60;;;16.10;99.90;;;;;;4969804;28;20445;-60
2023/09/17 00:46:24;;;;;;;8.70;5.30;;;16.00;99.90;;;;;;4965603;28;20231;-60
2023/09/17 00:48:50;;;;;;;10.50;6.60;;;16.00;99.90;;;;;;4970433;28;20186;-60
2023/09/17 00:51:16;;;;;;;5.93;5.33;;;16.00;99.90;;;;;;4960342;28;20433;-60
2023/09/17 00:53:42;;;;;;;8.93;5.40;;;15.90;99.90;;;;;;4968446;28;20719;-60
2023/09/17 00:56:08;;;;;;;7.97;6.30;;;15.90;99.90;;;;;;4965611;28;20524;-60
2023/09/17 00:58:34;;;;;;;7.60;6.33;;;15.90;99.90;;;;;;4966168;28;20201;-60
2023/09/17 01:01:01;;;;;;;8.33;6.40;;;15.80;99.90;;;;;;4967810;28;20438;-60
2023/09/17 01:03:27;;;;;;;7.50;5.40;;;15.80;99.90;;;;;;4969150;28;20441;-60
2023/09/17 01:05:54;;;;;;;7.40;5.50;;;15.70;99.90;;;;;;4966123;28;20489;-60
2023/09/17 01:08:22;;;;;;;7.03;5.83;;;15.70;99.90;;;;;;4969265;28;20472;-60
2023/09/17 01:10:49;;;;;;;8.30;6.17;;;15.70;99.90;;;;;;4967442;28;20434;-60
2023/09/17 01:13:15;;;;;;;7.43;5.33;;;15.70;99.90;;;;;;4969595;28;20449;-60
2023/09/17 01:15:41;;;;;;;10.00;5.90;;;15.70;99.90;;;;;;4965076;28;20430;-60
2023/09/17 01:18:09;;;;;;;14.80;6.03;;;15.70;99.90;;;;;;4968052;28;20958;-60
2023/09/17 01:21:04;;;;;;;7.57;5.80;;;15.70;99.90;;;;;;4969801;28;20737;-60
2023/09/17 01:23:40;;;;;;;6.50;5.63;;;15.80;99.90;;;;;;4969527;28;20432;-60
2023/09/17 01:26:34;;;;;;;7.23;6.10;;;15.70;99.90;;;;;;4968404;28;20477;-60
2023/09/17 01:29:00;;;;;;;7.20;6.10;;;15.70;99.90;;;;;;4960729;28;20941;-60
2023/09/17 01:31:27;;;;;;;7.93;5.50;;;15.70;99.90;;;;;;4967446;28;20472;-60
2023/09/17 01:33:53;;;;;;;8.00;5.43;;;15.70;99.90;;;;;;4968102;28;20433;-60
2023/09/17 01:36:23;;;;;;;6.50;5.20;;;15.70;99.90;;;;;;4970146;28;20429;-60
2023/09/17 01:38:53;;;;;;;6.60;5.63;;;15.70;99.90;;;;;;4966705;28;20441;-60
2023/09/17 01:41:19;;;;;;;7.03;5.80;;;15.70;99.90;;;;;;4969203;28;20469;-61
2023/09/17 01:43:46;;;;;;;6.43;5.83;;;15.70;99.90;;;;;;4966101;28;20434;-60
2023/09/17 01:46:11;;;;;;;6.23;5.43;;;15.70;99.90;;;;;;4962973;28;21856;-60
2023/09/17 01:48:42;;;;;;;7.00;5.40;;;15.70;99.90;;;;;;4962918;28;20433;-60
2023/09/17 01:51:10;;;;;;;7.33;5.43;;;15.70;99.90;;;;;;4960659;28;20186;-60
2023/09/17 01:53:36;;;;;;;7.57;5.97;;;15.70;99.90;;;;;;4984747;28;20428;-60
2023/09/17 01:56:04;;;;;;;7.80;5.77;;;15.70;99.90;;;;;;4965429;28;20612;-59
2023/09/17 01:58:30;;;;;;;7.57;5.70;;;15.70;99.90;;;;;;4960909;28;20937;-59
2023/09/17 02:00:56;;;;;;;8.33;5.83;;;15.70;99.90;;;;;;4967679;28;20440;-60
2023/09/17 02:03:22;;;;;;;8.00;4.97;;;15.70;99.90;;;;;;4960821;28;20457;-60
2023/09/17 02:05:48;;;;;;;7.43;5.20;;;15.70;99.90;;;;;;4964617;28;20834;-60
2023/09/17 02:08:14;;;;;;;8.67;5.50;;;15.70;99.90;;;;;;4962051;28;20205;-60
2023/09/17 02:10:40;;;;;;;7.37;5.47;;;15.70;99.90;;;;;;4965872;28;20205;-60
2023/09/17 02:13:06;;;;;;;6.97;5.30;;;15.70;99.90;;;;;;4965665;28;20464;-60
2023/09/17 02:15:32;;;;;;;6.90;5.53;;;15.70;99.90;;;;;;4965314;28;20444;-60
2023/09/17 02:17:58;;;;;;;8.60;5.13;;;15.70;99.90;;;;;;4963038;28;20987;-60
2023/09/17 02:20:23;;;;;;;8.60;5.57;;;15.70;99.90;;;;;;4965455;28;20174;-60
2023/09/17 02:22:50;;;;;;;7.40;5.67;;;15.70;99.90;;;;;;4964514;28;20290;-61
2023/09/17 02:25:16;;;;;;;7.50;5.70;;;15.70;99.90;;;;;;4962549;28;20761;-60
2023/09/17 02:27:42;;;;;;;6.53;5.57;;;15.70;99.90;;;;;;4966422;28;20453;-60
2023/09/17 02:30:08;;;;;;;7.00;5.10;;;15.70;99.90;;;;;;4962028;28;20423;-60
2023/09/17 02:32:34;;;;;;;9.10;5.73;;;15.70;99.90;;;;;;4964721;28;20684;-60
2023/09/17 02:35:00;;;;;;;6.53;5.20;;;15.70;99.90;;;;;;4967195;28;20185;-60
2023/09/17 02:37:26;;;;;;;6.27;5.63;;;15.80;99.90;;;;;;4964468;28;20178;-60
2023/09/17 02:39:52;;;;;;;8.90;5.63;;;15.80;99.90;;;;;;4961447;28;20223;-59
2023/09/17 02:42:17;;;;;;;6.20;5.60;;;15.80;99.90;;;;;;4968789;28;20523;-60
2023/09/17 02:44:43;;;;;;;6.80;5.60;;;15.80;99.90;;;;;;4969873;28;20185;-60
2023/09/17 02:47:09;;;;;;;8.07;6.60;;;15.80;99.90;;;;;;4967409;28;20201;-60
2023/09/17 02:49:35;;;;;;;10.43;6.17;;;15.80;99.90;;;;;;4967758;28;20174;-60
2023/09/17 02:52:01;;;;;;;7.83;6.10;;;15.80;99.90;;;;;;4972524;28;20216;-60
2023/09/17 02:54:27;;;;;;;7.73;6.10;;;15.80;99.90;;;;;;4965529;28;20181;-60
2023/09/17 02:56:53;;;;;;;7.50;5.50;;;15.80;99.90;;;;;;4965991;28;20174;-59
2023/09/17 02:59:19;;;;;;;8.07;6.20;;;15.80;99.90;;;;;;4965998;28;21003;-60
2023/09/17 03:01:45;;;;;;;6.93;6.00;;;15.80;99.90;;;;;;4966391;28;20200;-60
2023/09/17 03:04:11;;;;;;;7.13;6.33;;;15.80;99.90;;;;;;4968141;28;20519;-60
2023/09/17 03:06:37;;;;;;;8.40;6.07;;;15.80;99.90;;;;;;4968362;28;20297;-60
2023/09/17 03:09:07;;;;;;;6.67;6.07;;;15.80;99.90;;;;;;4969798;28;20842;-60
2023/09/17 03:11:33;;;;;;;9.33;6.03;;;15.80;99.90;;;;;;4973005;28;20446;-60
2023/09/17 03:13:58;;;;;;;6.40;5.80;;;15.80;99.90;;;;;;4969431;28;20475;-60
2023/09/17 03:16:24;;;;;;;17.93;6.53;;;15.80;99.90;;;;;;4966514;28;20819;-60
2023/09/17 03:18:50;;;;;;;7.43;5.93;;;15.70;99.90;;;;;;4967405;28;20209;-60
2023/09/17 03:21:16;;;;;;;9.00;6.50;;;15.80;99.90;;;;;;4973164;28;20546;-60
2023/09/17 03:23:41;;;;;;;8.03;6.40;;;15.80;99.90;;;;;;4972611;28;20585;-60
2023/09/17 03:26:09;;;;;;;8.43;6.57;;;15.80;99.90;;;;;;4967969;28;20476;-60
2023/09/17 03:28:35;;;;;;;7.83;6.60;;;15.80;99.90;;;;;;4967514;28;20179;-60
2023/09/17 03:31:01;;;;;;;10.27;7.07;;;15.80;99.90;;;;;;4967923;28;20496;-60
2023/09/17 03:33:27;;;;;;;6.63;5.97;;;15.80;99.90;;;;;;4964106;28;20807;-60
2023/09/17 03:35:52;;;;;;;7.50;5.40;;;15.70;99.90;;;;;;4966782;28;20498;-60
2023/09/17 03:38:18;;;;;;;6.80;6.10;;;15.70;99.90;;;;;;4968033;28;20185;-61
2023/09/17 03:40:44;;;;;;;6.13;5.53;;;15.70;99.90;;;;;;4969975;28;21699;-60
2023/09/17 03:43:10;;;;;;;11.00;6.07;;;15.70;99.90;;;;;;4969906;28;20452;-60
2023/09/17 03:45:35;;;;;;;8.40;6.40;;;15.60;99.90;;;;;;4968062;28;20188;-60
2023/09/17 03:48:01;;;;;;;7.73;6.33;;;15.60;99.90;;;;;;4965610;28;20173;-60
2023/09/17 03:50:27;;;;;;;10.23;6.23;;;15.60;99.90;;;;;;4964019;28;20194;-59
2023/09/17 03:52:57;;;;;;;8.47;5.80;;;15.50;99.90;;;;;;4957340;28;20204;-59
2023/09/17 03:55:23;;;;;;;10.00;6.13;;;15.40;99.90;;;;;;4961885;28;20471;-60
2023/09/17 03:57:50;;;;;;;7.87;6.23;;;15.40;99.90;;;;;;4964116;28;20422;-59
2023/09/17 04:00:17;;;;;;;8.30;6.10;;;15.40;99.90;;;;;;4967027;28;20422;-59
2023/09/17 04:02:44;;;;;;;8.10;6.30;;;15.40;99.90;;;;;;4965544;28;20441;-60
2023/09/17 04:05:12;;;;;;;7.60;6.13;;;15.40;99.90;;;;;;4962162;28;20464;-60
2023/09/17 04:07:43;;;;;;;15.10;6.30;;;15.40;99.90;;;;;;4962295;28;20849;-59
2023/09/17 04:10:10;;;;;;;9.63;5.67;;;15.40;99.90;;;;;;4966349;28;20426;-60
2023/09/17 04:12:37;;;;;;;6.90;5.80;;;15.40;99.90;;;;;;4966476;28;20481;-59
2023/09/17 04:15:07;;;;;;;6.80;5.90;;;15.40;99.90;;;;;;4969191;28;20504;-59
2023/09/17 04:17:33;;;;;;;7.73;6.13;;;15.30;99.90;;;;;;4962208;28;20996;-61
2023/09/17 04:19:59;;;;;;;7.93;5.50;;;15.40;99.90;;;;;;4968597;28;20445;-60
2023/09/17 04:22:24;;;;;;;6.70;6.00;;;15.40;99.90;;;;;;4970497;28;20249;-59
2023/09/17 04:24:50;;;;;;;10.60;6.30;;;15.40;99.90;;;;;;4969061;28;20182;-60
2023/09/17 04:27:16;;;;;;;8.13;6.40;;;15.40;99.90;;;;;;4964813;28;20194;-59
2023/09/17 04:29:41;;;;;;;8.20;5.83;;;15.40;99.90;;;;;;4969421;28;20201;-59
2023/09/17 04:32:07;;;;;;;9.10;6.37;;;15.40;99.90;;;;;;4962899;28;22120;-59
2023/09/17 04:34:33;;;;;;;7.83;5.90;;;15.40;99.90;;;;;;4968258;28;20547;-60
2023/09/17 04:37:00;;;;;;;10.27;6.83;;;15.40;99.90;;;;;;4963028;28;20178;-60
2023/09/17 04:39:26;;;;;;;7.03;6.27;;;15.40;99.90;;;;;;4965109;28;20177;-59
2023/09/17 04:41:52;;;;;;;7.80;6.30;;;15.40;99.90;;;;;;4967388;28;20445;-60
2023/09/17 04:44:17;;;;;;;6.20;5.60;;;15.40;99.90;;;;;;4967031;28;20190;-59
2023/09/17 04:46:43;;;;;;;9.03;6.13;;;15.40;99.90;;;;;;4967008;28;20453;-60
2023/09/17 04:49:09;;;;;;;7.13;6.20;;;15.40;99.90;;;;;;4968297;28;20186;-60
2023/09/17 04:51:35;;;;;;;8.43;6.57;;;15.40;99.90;;;;;;4969793;28;20665;-59
2023/09/17 04:54:01;;;;;;;10.60;6.50;;;15.40;99.90;;;;;;4966962;28;20462;-60
2023/09/17 04:56:27;;;;;;;7.50;6.70;;;15.40;99.90;;;;;;4967656;28;20637;-59
2023/09/17 04:58:53;;;;;;;7.23;6.00;;;15.40;99.90;;;;;;4965809;28;20440;-60
2023/09/17 05:01:18;;;;;;;8.67;6.70;;;15.40;99.90;;;;;;4967735;28;20240;-59
2023/09/17 05:03:46;;;;;;;10.60;6.93;;;15.40;99.90;;;;;;4963571;28;20178;-59
2023/09/17 05:06:12;;;;;;;9.93;6.43;;;15.40;99.90;;;;;;4969327;28;20282;-59
2023/09/17 05:08:38;;;;;;;10.80;6.60;;;15.40;99.90;;;;;;4968212;28;20590;-59
2023/09/17 05:11:05;;;;;;;10.30;6.87;;;15.40;99.90;;;;;;4966027;28;21035;-59
2023/09/17 05:13:31;;;;;;;10.37;6.33;;;15.40;99.90;;;;;;4962060;28;20245;-58
2023/09/17 05:15:57;;;;;;;8.03;7.07;;;15.40;99.90;;;;;;4966169;28;20480;-60
2023/09/17 05:18:23;;;;;;;7.50;6.07;;;15.40;99.90;;;;;;4962967;28;20441;-58
2023/09/17 05:20:53;;;;;;;9.87;6.17;;;15.40;99.90;;;;;;4962187;28;20177;-59
2023/09/17 05:23:19;;;;;;;11.10;6.90;;;15.40;99.90;;;;;;4965246;28;20526;-59
2023/09/17 05:25:45;;;;;;;6.93;6.10;;;15.40;99.90;;;;;;4961743;28;20490;-59
2023/09/17 05:28:10;;;;;;;9.57;6.47;;;15.40;99.90;;;;;;4967381;28;20430;-59
2023/09/17 05:30:36;;;;;;;11.23;6.23;;;15.40;99.90;;;;;;4963348;28;20776;-61
2023/09/17 05:33:06;;;;;;;8.23;6.23;;;15.40;99.90;;;;;;4966683;28;20221;-59
2023/09/17 05:35:32;;;;;;;10.93;6.70;;;15.40;99.90;;;;;;4970109;28;20425;-58
2023/09/17 05:37:58;;;;;;;8.50;6.47;;;15.40;99.90;;;;;;4966556;28;20889;-60
2023/09/17 05:40:23;;;;;;;10.13;6.80;;;15.40;99.90;;;;;;4966187;28;20460;-60
2023/09/17 05:42:49;;;;;;;7.57;6.17;;;15.30;99.90;;;;;;4969630;28;20217;-59
2023/09/17 05:45:15;;;;;;;8.27;6.77;;;15.40;99.90;;;;;;4969586;28;20174;-60
2023/09/17 05:47:42;;;;;;;11.23;6.47;;;15.40;99.90;;;;;;4967306;28;20527;-60
2023/09/17 05:50:09;;;;;;;9.70;6.50;;;15.40;99.90;;;;;;4963123;28;20425;-59
2023/09/17 05:52:35;;;;;;;9.80;6.53;;;15.30;99.90;;;;;;4963967;28;20445;-60
2023/09/17 05:55:03;;;;;;;7.37;6.63;;;15.40;99.90;;;;;;4961432;28;20471;-59
2023/09/17 05:57:29;;;;;;;9.40;6.57;;;15.40;99.90;;;;;;4959026;28;20185;-59
2023/09/17 05:59:55;;;;;;;7.83;6.47;;;15.40;99.90;;;;;;4965729;28;20437;-60
2023/09/17 06:02:21;;;;;;;7.80;6.33;;;15.40;99.90;;;;;;4966454;28;20455;-60
2023/09/17 06:04:51;;;;;;;10.00;6.23;;;15.40;99.90;;;;;;4962961;28;20838;-59
2023/09/17 06:07:16;;;;;;;10.00;6.43;;;15.40;99.90;;;;;;4968734;28;20204;-59
2023/09/17 06:09:42;;;;;;;11.90;6.40;;;15.40;99.90;;;;;;4964643;28;20437;-60
2023/09/17 06:12:08;;;;;;;10.93;5.93;;;15.40;99.90;;;;;;4972942;28;20204;-60
2023/09/17 06:14:34;;;;;;;7.37;6.50;;;15.40;99.90;;;;;;4965529;28;20178;-60
2023/09/17 06:16:59;;;;;;;11.43;6.37;;;15.50;99.90;;;;;;4966473;28;20437;-60
2023/09/17 06:19:29;;;;;;;10.17;7.07;;;15.50;99.90;;;;;;4966786;28;20228;-61
2023/09/17 06:21:54;;;;;;;15.00;6.07;;;15.60;99.90;;;;;;4963955;28;20225;-60
2023/09/17 06:24:20;;;;;;;8.30;6.00;;;15.60;99.90;;;;;;4968628;28;20464;-60
2023/09/17 06:26:46;;;;;;;7.43;6.03;;;15.70;99.90;;;;;;4962079;28;20668;-60
2023/09/17 06:29:11;;;;;;;12.27;5.97;;;15.70;99.90;;;;;;4964480;28;20178;-60
2023/09/17 06:31:37;;;;;;;15.10;8.00;;;15.70;99.90;;;;;;4965084;28;20205;-60
2023/09/17 06:34:03;;;;;;;8.03;6.40;;;15.80;99.90;;;;;;4967793;28;20208;-60
2023/09/17 06:36:29;;;;;;;9.00;7.23;;;15.90;99.90;;;;;;4964510;28;20267;-60
2023/09/17 06:38:55;;;;;;;6.93;5.93;;;15.90;99.90;;;;;;4962789;28;20174;-60
2023/09/17 06:41:21;;;;;;;10.80;6.80;;;16.00;99.90;;;;;;4963013;28;20581;-59
2023/09/17 06:43:47;;;;;;;11.20;6.47;;;16.00;99.90;;;;;;4965278;28;20429;-60
2023/09/17 06:46:12;;;;;;;12.63;7.13;;;16.00;99.90;;;;;;4961973;28;20990;-61
2023/09/17 06:48:38;;;;;;;8.50;6.77;;;16.10;99.90;;;;;;4962653;28;20197;-61
2023/09/17 06:51:04;;;;;;;9.07;6.17;;;16.10;99.90;;;;;;4965232;28;20186;-59
2023/09/17 06:53:29;;;;;;;10.30;7.70;;;16.10;99.90;;;;;;4967103;28;20201;-60
2023/09/17 06:55:56;;;;;;;10.00;6.60;;;16.20;99.90;;;;;;4968343;28;20210;-60
2023/09/17 06:58:22;;;;;;;8.10;6.70;;;16.30;99.90;;;;;;4962348;28;20182;-60
2023/09/17 07:00:48;;;;;;;10.57;6.40;;;16.40;99.90;;;;;;4956175;28;20931;-60
2023/09/17 07:03:13;;;;;;;9.70;6.67;;;16.40;99.90;;;;;;4963830;28;20197;-60
2023/09/17 07:05:40;;;;;;;9.83;6.27;;;16.50;99.90;;;;;;4966770;28;20193;-59
2023/09/17 07:08:06;;;;;;;7.83;6.70;;;16.60;99.90;;;;;;4966971;28;20189;-59
2023/09/17 07:10:32;;;;;;;8.00;6.30;;;16.60;99.90;;;;;;4963528;28;20429;-60
2023/09/17 07:12:58;;;;;;;8.47;6.90;;;16.70;99.90;;;;;;4960370;28;21213;-59
2023/09/17 07:15:25;;;;;;;6.70;5.67;;;16.80;99.90;;;;;;4964329;28;20433;-59
2023/09/17 07:17:51;;;;;;;7.83;6.63;;;16.80;99.90;;;;;;4962623;28;20217;-59
2023/09/17 07:20:19;;;;;;;7.37;6.10;;;16.90;99.90;;;;;;4961364;28;20515;-59
2023/09/17 07:22:46;;;;;;;10.40;6.07;;;17.00;99.90;;;;;;4963371;28;20197;-55
2023/09/17 07:25:12;;;;;;;6.97;6.27;;;17.10;99.90;;;;;;4963348;28;20433;-53
2023/09/17 07:27:38;;;;;;;7.13;6.00;;;17.10;99.90;;;;;;4964094;28;20949;-53
2023/09/17 07:30:05;;;;;;;10.50;6.20;;;17.20;99.90;;;;;;4963242;28;20174;-53
2023/09/17 07:32:31;;;;;;;8.03;5.70;;;17.30;99.90;;;;;;4968870;28;20489;-53
2023/09/17 07:34:57;;;;;;;9.20;6.73;;;17.40;99.90;;;;;;4972069;28;20505;-55
2023/09/17 07:37:23;;;;;;;7.07;6.37;;;17.40;99.90;;;;;;4970388;28;20424;-55
2023/09/17 07:39:56;;;;;;;7.47;6.20;;;17.50;99.90;;;;;;4968559;28;20436;-53
2023/09/17 07:42:22;;;;;;;5.80;5.30;;;17.50;99.90;;;;;;4966509;28;20262;-54
2023/09/17 07:44:48;;;;;;;6.53;5.87;;;17.60;99.90;;;;;;4972390;28;20425;-53
2023/09/17 07:47:13;;;;;;;7.43;6.03;;;17.70;99.90;;;;;;4965915;28;20472;-53
2023/09/17 07:49:39;;;;;;;6.70;6.00;;;17.80;99.90;;;;;;4958288;28;20637;-56
2023/09/17 07:52:05;;;;;;;6.60;5.73;;;17.90;99.90;;;;;;4968699;28;20277;-54
2023/09/17 07:54:38;;;;;;;8.63;5.87;;;18.00;99.90;;;;;;4963374;28;20185;-55
2023/09/17 07:57:05;;;;;;;6.50;5.73;;;18.00;99.90;;;;;;4969164;28;20273;-52
2023/09/17 07:59:31;;;;;;;9.07;5.47;;;18.10;99.90;;;;;;4968390;28;20433;-55
2023/09/17 08:01:58;;;;;;;11.37;5.57;;;18.30;99.90;;;;;;4962788;28;20953;-52
2023/09/17 08:04:24;;;;;;;9.60;5.70;;;18.40;99.90;;;;;;4962229;28;20276;-55
2023/09/17 08:06:49;;;;;;;7.33;6.00;;;18.50;99.90;;;;;;4967992;28;20516;-54
2023/09/17 08:09:16;;;;;;;7.70;5.30;;;18.60;99.90;;;;;;4966066;28;20178;-56
2023/09/17 08:11:42;;;;;;;6.70;5.53;;;18.70;99.90;;;;;;4966731;28;20197;-54
2023/09/17 08:14:09;;;;;;;10.83;6.00;;;18.80;99.90;;;;;;4968752;28;20440;-58
2023/09/17 08:16:35;;;;;;;9.87;6.27;;;18.90;99.90;;;;;;4964543;28;20182;-57
2023/09/17 08:19:01;;;;;;;8.63;5.90;;;19.00;99.90;;;;;;4966301;28;20456;-53
2023/09/17 08:21:27;;;;;;;6.67;5.67;;;19.10;99.90;;;;;;4966802;28;20433;-54
2023/09/17 08:23:53;;;;;;;8.13;5.70;;;19.20;99.90;;;;;;4964553;28;20208;-55
2023/09/17 08:26:21;;;;;;;10.90;6.10;;;19.30;99.90;;;;;;4967641;28;20531;-55
2023/09/17 08:28:48;;;;;;;8.10;5.13;;;19.40;99.90;;;;;;4964605;28;20179;-54
2023/09/17 08:31:14;;;;;;;5.30;4.80;;;19.60;99.90;;;;;;4964220;28;20454;-54
2023/09/17 08:33:40;;;;;;;9.20;5.40;;;19.60;99.90;;;;;;4968169;28;20429;-54
2023/09/17 08:36:06;;;;;;;10.60;5.07;;;19.70;99.90;;;;;;4966003;28;20860;-56
2023/09/17 08:38:32;;;;;;;8.57;5.13;;;19.80;99.90;;;;;;4966008;28;20185;-55
2023/09/17 08:40:59;;;;;;;7.80;5.90;;;19.90;99.90;;;;;;4968953;28;20182;-54
2023/09/17 08:43:25;;;;;;;6.20;5.60;;;20.00;99.90;;;;;;4966577;28;20437;-55
2023/09/17 08:45:51;;;;;;;13.77;6.03;;;20.10;99.90;;;;;;4965008;28;20559;-55
2023/09/17 08:48:17;;;;;;;9.10;5.30;;;20.30;99.90;;;;;;4968654;28;20512;-55
2023/09/17 08:50:49;;;;;;;6.07;4.80;;;20.40;99.90;;;;;;4966450;28;20429;-54
2023/09/17 08:53:19;;;;;;;13.80;6.80;;;20.50;99.90;;;;;;4961233;28;20816;-56
2023/09/17 08:55:49;;;;;;;11.37;7.90;;;20.60;99.90;;;;;;4967372;28;20464;-54
2023/09/17 08:58:17;;;;;;;11.90;8.17;;;20.70;99.90;;;;;;4964510;28;20433;-55
2023/09/17 09:00:49;;;;;;;10.87;5.87;;;20.70;99.90;;;;;;4967975;28;20421;-56
2023/09/17 09:03:17;;;;;;;8.40;6.20;;;20.90;99.90;;;;;;4965789;28;20441;-55
2023/09/17 09:05:44;;;;;;;15.50;9.93;;;21.00;99.90;;;;;;4966313;28;20425;-55
2023/09/17 09:08:12;;;;;;;9.37;7.00;;;21.10;99.90;;;;;;4958785;28;20441;-56
2023/09/17 09:10:38;;;;;;;10.40;5.00;;;21.20;99.90;;;;;;4952883;28;20433;-55
2023/09/17 09:13:04;;;;;;;6.30;4.90;;;21.30;99.90;;;;;;4965058;28;20453;-56
2023/09/17 09:15:30;;;;;;;6.60;5.17;;;21.40;99.90;;;;;;4956714;28;20170;-54
2023/09/17 09:17:56;;;;;;;9.57;4.47;;;21.50;99.90;;;;;;4948702;28;20190;-55
2023/09/17 09:20:22;;;;;;;10.90;5.00;;;21.60;99.90;;;;;;4956200;28;20846;-56
2023/09/17 09:22:48;;;;;;;6.80;4.50;;;21.80;99.90;;;;;;4957052;28;20217;-56
2023/09/17 09:25:16;;;;;;;4.80;4.10;;;21.90;99.90;;;;;;4952796;28;21530;-56
2023/09/17 09:27:42;;;;;;;8.03;4.30;;;22.00;99.90;;;;;;4959210;28;21034;-57
2023/09/17 09:30:09;;;;;;;6.53;3.57;;;22.20;99.90;;;;;;4965684;28;20974;-61
2023/09/17 09:32:36;;;;;;;5.77;3.37;;;22.40;99.90;;;;;;4961343;28;20468;-58
2023/09/17 09:35:02;;;;;;;5.53;3.27;;;22.50;99.90;;;;;;4963104;28;20425;-59
2023/09/17 09:37:28;;;;;;;4.20;3.80;;;22.70;98.90;;;;;;4965462;28;20456;-59
2023/09/17 09:39:54;;;;;;;6.23;4.00;;;22.80;94.40;;;;;;4963104;28;20182;-59
2023/09/17 09:42:21;;;;;;;4.13;3.13;;;22.90;92.60;;;;;;4969304;28;20455;-59
2023/09/17 09:44:47;;;;;;;4.63;3.60;;;23.00;89.70;;;;;;4962675;28;20256;-58
2023/09/17 09:47:13;;;;;;;6.47;3.40;;;23.20;84.00;;;;;;4969768;28;20966;-58
2023/09/17 09:49:43;;;;;;;7.20;3.40;;;23.30;80.90;;;;;;4967949;28;20198;-58
2023/09/17 09:52:13;;;;;;;5.73;3.60;;;23.50;82.20;;;;;;4963629;28;20467;-59
2023/09/17 09:54:40;;;;;;;4.03;3.10;;;23.60;76.10;;;;;;4964642;28;20449;-58
2023/09/17 09:57:06;;;;;;;8.30;3.57;;;23.60;73.40;;;;;;4962147;28;20539;-59
2023/09/17 09:59:33;;;;;;;5.73;3.10;;;23.70;76.80;;;;;;4962883;28;20955;-58
2023/09/17 10:02:02;;;;;;;6.13;3.20;;;23.80;72.20;;;;;;4964144;28;20186;-58
2023/09/17 10:04:28;;;;;;;10.30;3.20;;;23.90;72.10;;;;;;4969036;28;20946;-58
2023/09/17 10:06:53;;;;;;;5.33;3.13;;;24.10;69.40;;;;;;4967059;28;20472;-58
2023/09/17 10:09:20;;;;;;;5.07;3.00;;;24.20;66.20;;;;;;4963634;28;20212;-58
2023/09/17 10:11:46;;;;;;;6.10;3.37;;;24.40;64.40;;;;;;4961704;28;20193;-58
2023/09/17 10:14:14;;;;;;;5.87;3.33;;;24.50;63.20;;;;;;4963447;28;20421;-58
2023/09/17 10:16:40;;;;;;;4.23;2.90;;;24.60;62.40;;;;;;4966513;28;20487;-58
2023/09/17 10:19:07;;;;;;;5.77;3.40;;;24.70;63.60;;;;;;4960357;28;20433;-58
2023/09/17 10:21:37;;;;;;;6.20;3.37;;;24.80;62.50;;;;;;4961274;28;20459;-58
2023/09/17 10:24:04;;;;;;;5.50;3.27;;;24.80;61.70;;;;;;4969915;28;20444;-58
2023/09/17 10:26:37;;;;;;;5.17;3.67;;;24.90;61.50;;;;;;4966428;28;20471;-58
2023/09/17 10:29:04;;;;;;;5.47;3.33;;;24.90;61.20;;;;;;4963628;28;20433;-59
2023/09/17 10:31:31;;;;;;;4.80;3.10;;;25.00;62.50;;;;;;4962652;28;21062;-60
2023/09/17 10:33:59;;;;;;;7.07;3.90;;;25.10;60.30;;;;;;4959702;28;20951;-59
2023/09/17 10:36:25;;;;;;;7.70;3.60;;;25.10;59.60;;;;;;4961053;28;20440;-59
2023/09/17 10:38:54;;;;;;;4.90;3.10;;;25.20;58.70;;;;;;4959557;28;20436;-57
2023/09/17 10:41:22;;;;;;;5.63;3.80;;;25.40;58.10;;;;;;4954745;28;20207;-60
2023/09/17 10:43:49;;;;;;;6.40;3.03;;;25.40;59.00;;;;;;4969572;28;20939;-61
2023/09/17 10:46:19;;;;;;;4.10;3.10;;;25.50;57.50;;;;;;4971763;28;20460;-61
2023/09/17 10:48:46;;;;;;;8.40;2.80;;;25.50;58.70;;;;;;4971123;28;20435;-60
2023/09/17 10:51:12;;;;;;;2.70;2.50;;;25.50;58.00;;;;;;4966382;28;20879;-61
2023/09/17 10:53:38;;;;;;;5.13;3.33;;;25.50;58.20;;;;;;4965007;28;20429;-60
2023/09/17 10:56:08;;;;;;;4.33;3.00;;;25.60;58.10;;;;;;4963243;28;20252;-60
2023/09/17 10:58:52;;;;;;;4.87;2.90;;;25.60;57.70;;;;;;4964275;28;20215;-61
2023/09/17 11:01:30;;;;;;;3.80;2.97;;;25.60;57.80;;;;;;4964331;28;20432;-60
2023/09/17 11:04:06;;;;;;;4.00;3.20;;;25.70;58.50;;;;;;4966983;28;20456;-60
2023/09/17 11:06:34;;;;;;;5.13;2.90;;;25.80;57.40;;;;;;4965951;28;20460;-60
2023/09/17 11:09:01;;;;;;;6.33;3.03;;;25.90;57.50;;;;;;4970776;28;20479;-60
2023/09/17 11:11:30;;;;;;;3.63;2.50;;;25.90;56.40;;;;;;4960577;28;21155;-60
2023/09/17 11:13:56;;;;;;;5.70;2.97;;;26.00;56.20;;;;;;4984093;28;20520;-61
2023/09/17 11:16:25;;;;;;;5.80;3.37;;;26.00;56.90;;;;;;4987219;28;20424;-61
2023/09/17 11:19:11;;;;;;;4.70;3.20;;;26.10;56.20;;;;;;4968251;28;20471;-60
2023/09/17 11:21:47;;;;;;;4.77;2.83;;;26.20;56.60;;;;;;4970175;28;20959;-61
2023/09/17 11:24:13;;;;;;;4.17;2.97;;;26.30;56.20;;;;;;4971145;28;20487;-61
2023/09/17 11:26:40;;;;;;;3.97;3.00;;;26.40;54.80;;;;;;4969032;28;20197;-60
2023/09/17 11:29:08;;;;;;;4.57;2.80;;;26.50;55.60;;;;;;4968354;28;20174;-60
2023/09/17 11:31:53;;;;;;;5.83;3.60;;;26.70;55.00;;;;;;4972571;28;20300;-61
2023/09/17 11:34:21;;;;;;;7.37;2.93;;;26.80;53.90;;;;;;4970782;28;20177;-60
2023/09/17 11:36:47;;;;;;;4.37;2.87;;;26.90;53.50;;;;;;4971502;28;20193;-60
2023/09/17 11:39:20;;;;;;;6.20;2.83;;;26.90;53.30;;;;;;4968313;28;20632;-61
2023/09/17 11:41:48;;;;;;;6.53;3.23;;;27.00;54.00;;;;;;4970661;28;20196;-60
2023/09/17 11:44:15;;;;;;;5.17;3.87;;;27.00;53.70;;;;;;4966651;28;20204;-60
2023/09/17 11:46:42;;;;;;;4.43;3.27;;;27.10;54.10;;;;;;4972058;28;20228;-60
2023/09/17 11:49:11;;;;;;;2.90;2.60;;;27.20;55.80;;;;;;4968490;28;20205;-60
2023/09/17 11:51:44;;;;;;;3.10;2.50;;;27.40;55.60;;;;;;4969315;28;20209;-60
2023/09/17 11:54:15;;;;;;;3.70;2.67;;;27.50;53.80;;;;;;4966325;28;20634;-60
2023/09/17 11:56:50;;;;;;;3.57;2.67;;;27.50;50.50;;;;;;4969984;28;20309;-60
2023/09/17 11:59:16;;;;;;;2.93;2.63;;;27.50;51.50;;;;;;4970813;28;20173;-60
2023/09/17 12:01:50;;;;;;;8.70;3.50;;;27.70;51.20;;;;;;4966607;28;20907;-60
2023/09/17 12:04:17;;;;;;;3.77;2.30;;;27.70;52.20;;;;;;4967569;28;20185;-60
2023/09/17 12:06:46;;;;;;;14.03;2.70;;;27.90;50.70;;;;;;4961222;28;20214;-60
2023/09/17 12:12:01;;;;;;;4.13;2.93;;;28.20;50.40;;;;;;4953517;28;20205;-60
2023/09/17 12:14:26;;;;;;;4.07;2.65;;;28.30;49.20;;;;;;4966951;28;20220;-60
2023/09/17 12:16:53;;;;;;;5.00;2.60;;;28.40;48.90;;;;;;4962977;28;20185;-59
2023/09/17 12:19:19;;;;;;;7.20;3.53;;;28.50;49.60;;;;;;4963417;28;20182;-60
2023/09/17 12:21:47;;;;;;;4.88;2.20;;;28.60;50.20;;;;;;4968804;28;20245;-60
2023/09/17 12:24:28;;;;;;;2.65;2.38;;;28.70;49.20;;;;;;4965280;28;20248;-60
2023/09/17 12:29:37;;;;;;;4.35;2.50;;;29.00;49.90;;;;;;4974106;28;20197;-60
2023/09/17 12:32:04;;;;;;;2.97;2.50;;;29.10;48.80;;;;;;4969977;28;20747;-61
2023/09/17 12:34:30;;;;;;;3.13;2.28;;;29.30;48.40;;;;;;4967725;28;20178;-60
2023/09/17 12:36:56;;;;;;;3.13;2.65;;;29.30;47.10;;;;;;4966990;28;20272;-60
2023/09/17 12:39:22;;;;;;;6.93;2.42;;;29.20;48.00;;;;;;4967859;28;20239;-60
2023/09/17 12:41:48;;;;;;;4.65;2.72;;;29.20;47.80;;;;;;4966338;28;20236;-60
2023/09/17 12:44:14;;;;;;;3.78;2.45;;;29.30;47.90;;;;;;4966281;28;20656;-60
2023/09/17 12:46:40;;;;;;;7.18;2.85;;;29.30;46.90;;;;;;4969342;28;20209;-59
2023/09/17 12:49:06;;;;;;;3.03;2.05;;;29.40;46.80;;;;;;4972893;28;20174;-61